createdAt,value
2016-09-18T00:00:02.338Z,1010.9
2016-09-18T00:01:02.319Z,1010.93
2016-09-18T00:02:02.309Z,1010.94
2016-09-18T00:03:02.290Z,1010.91
2016-09-18T00:04:02.270Z,1010.93
2016-09-18T00:05:02.258Z,1010.94
2016-09-18T00:06:02.244Z,1010.9
2016-09-18T00:07:02.227Z,1010.91
2016-09-18T00:08:02.218Z,1010.89
2016-09-18T00:09:02.195Z,1010.88
2016-09-18T00:10:02.184Z,1010.93
2016-09-18T00:11:02.169Z,1010.91
2016-09-18T00:12:02.156Z,1010.9
2016-09-18T00:13:02.140Z,1010.93
2016-09-18T00:14:02.121Z,1010.88
2016-09-18T00:15:02.107Z,1010.91
2016-09-18T00:16:02.091Z,1010.88
2016-09-18T00:17:02.073Z,1010.86
2016-09-18T00:18:02.060Z,1010.93
2016-09-18T00:19:02.047Z,1010.94
2016-09-18T00:20:02.029Z,1010.9
2016-09-18T00:21:02.015Z,1010.93
2016-09-18T00:22:01.998Z,1010.96
2016-09-18T00:23:01.984Z,1010.94
2016-09-18T00:24:01.966Z,1010.9
2016-09-18T00:25:01.952Z,1010.9
2016-09-18T00:26:01.936Z,1010.89
2016-09-18T00:27:01.925Z,1010.9
2016-09-18T00:28:01.906Z,1010.9
2016-09-18T00:29:01.890Z,1010.94
2016-09-18T00:30:01.891Z,1010.9
2016-09-18T00:31:01.856Z,1010.88
2016-09-18T00:32:01.843Z,1010.91
2016-09-18T00:33:01.832Z,1010.88
2016-09-18T00:34:01.813Z,1010.89
2016-09-18T00:35:01.795Z,1010.91
2016-09-18T00:36:01.781Z,1010.89
2016-09-18T00:37:01.767Z,1010.88
2016-09-18T00:38:01.752Z,1010.9
2016-09-18T00:39:01.741Z,1010.88
2016-09-18T00:40:01.721Z,1010.88
2016-09-18T00:41:01.706Z,1010.9
2016-09-18T00:42:01.688Z,1010.9
2016-09-18T00:43:01.677Z,1010.89
2016-09-18T00:44:01.657Z,1010.92
2016-09-18T00:45:01.643Z,1010.93
2016-09-18T00:46:01.628Z,1010.96
2016-09-18T00:47:01.613Z,1010.94
2016-09-18T00:48:01.602Z,1011
2016-09-18T00:49:01.580Z,1011
2016-09-18T00:50:01.564Z,1011.04
2016-09-18T00:51:01.551Z,1011
2016-09-18T00:52:01.536Z,1011
2016-09-18T00:53:01.522Z,1011
2016-09-18T00:54:01.504Z,1010.98
2016-09-18T00:55:01.489Z,1010.96
2016-09-18T00:56:01.474Z,1010.95
2016-09-18T00:57:01.459Z,1010.95
2016-09-18T00:58:01.445Z,1010.9
2016-09-18T00:59:01.428Z,1010.89
2016-09-18T01:00:01.411Z,1010.87
2016-09-18T01:01:01.392Z,1010.89
2016-09-18T01:02:01.381Z,1010.85
2016-09-18T01:03:01.362Z,1010.84
2016-09-18T01:04:01.352Z,1010.86
2016-09-18T01:05:01.334Z,1010.84
2016-09-18T01:06:01.324Z,1010.81
2016-09-18T01:07:01.301Z,1010.85
2016-09-18T01:08:01.287Z,1010.86
2016-09-18T01:09:01.273Z,1010.85
2016-09-18T01:10:01.263Z,1010.89
2016-09-18T01:11:01.244Z,1010.82
2016-09-18T01:12:01.238Z,1010.86
2016-09-18T01:13:01.211Z,1010.88
2016-09-18T01:14:01.199Z,1010.86
2016-09-18T01:15:01.183Z,1010.87
2016-09-18T01:16:01.165Z,1010.87
2016-09-18T01:17:01.155Z,1010.88
2016-09-18T01:18:01.132Z,1010.82
2016-09-18T01:19:01.119Z,1010.83
2016-09-18T01:20:01.101Z,1010.86
2016-09-18T01:21:01.088Z,1010.88
2016-09-18T01:22:01.074Z,1010.85
2016-09-18T01:23:01.058Z,1010.85
2016-09-18T01:24:01.040Z,1010.83
2016-09-18T01:25:01.029Z,1010.83
2016-09-18T01:26:01.009Z,1010.82
2016-09-18T01:27:01.000Z,1010.85
2016-09-18T01:28:00.994Z,1010.83
2016-09-18T01:29:00.969Z,1010.86
2016-09-18T01:30:00.951Z,1010.83
2016-09-18T01:31:00.937Z,1010.87
2016-09-18T01:32:00.917Z,1010.88
2016-09-18T01:33:00.905Z,1010.87
2016-09-18T01:34:00.889Z,1010.87
2016-09-18T01:35:00.922Z,1010.86
2016-09-18T01:36:00.857Z,1010.92
2016-09-18T01:37:00.843Z,1010.91
2016-09-18T01:38:00.826Z,1010.89
2016-09-18T01:39:00.809Z,1010.91
2016-09-18T01:40:00.795Z,1010.88
2016-09-18T01:41:00.777Z,1010.89
2016-09-18T01:42:00.765Z,1010.92
2016-09-18T01:43:00.751Z,1010.92
2016-09-18T01:44:00.733Z,1010.9
2016-09-18T01:45:00.718Z,1010.95
2016-09-18T01:46:00.703Z,1010.91
2016-09-18T01:47:00.687Z,1010.93
2016-09-18T01:48:00.669Z,1010.94
2016-09-18T01:49:00.652Z,1010.92
2016-09-18T01:50:00.640Z,1010.93
2016-09-18T01:51:00.626Z,1010.85
2016-09-18T01:52:00.610Z,1010.87
2016-09-18T01:53:00.594Z,1010.87
2016-09-18T01:54:00.579Z,1010.82
2016-09-18T01:55:00.560Z,1010.82
2016-09-18T01:56:00.546Z,1010.87
2016-09-18T01:57:00.529Z,1010.83
2016-09-18T01:58:00.516Z,1010.87
2016-09-18T01:59:00.500Z,1010.85
2016-09-18T02:00:00.485Z,1010.87
2016-09-18T02:01:00.470Z,1010.88
2016-09-18T02:02:00.453Z,1010.89
2016-09-18T02:03:00.437Z,1010.87
2016-09-18T02:04:00.422Z,1010.88
2016-09-18T02:05:00.407Z,1010.89
2016-09-18T02:06:00.392Z,1010.86
2016-09-18T02:07:00.376Z,1010.88
2016-09-18T02:08:00.361Z,1010.9
2016-09-18T02:09:00.344Z,1010.83
2016-09-18T02:10:00.333Z,1010.85
2016-09-18T02:11:00.316Z,1010.81
2016-09-18T02:12:00.299Z,1010.85
2016-09-18T02:13:00.283Z,1010.84
2016-09-18T02:14:00.264Z,1010.85
2016-09-18T02:15:00.252Z,1010.82
2016-09-18T02:16:00.245Z,1010.83
2016-09-18T02:17:00.222Z,1010.83
2016-09-18T02:18:00.206Z,1010.79
2016-09-18T02:19:00.191Z,1010.81
2016-09-18T02:20:00.177Z,1010.81
2016-09-18T02:21:00.161Z,1010.83
2016-09-18T02:22:00.148Z,1010.86
2016-09-18T02:23:00.132Z,1010.83
2016-09-18T02:24:00.112Z,1010.86
2016-09-18T02:25:00.100Z,1010.85
2016-09-18T02:26:00.084Z,1010.83
2016-09-18T02:27:00.066Z,1010.82
2016-09-18T02:28:00.052Z,1010.83
2016-09-18T02:29:00.036Z,1010.78
2016-09-18T02:30:00.022Z,1010.85
2016-09-18T02:31:00.007Z,1010.84
2016-09-18T02:31:59.989Z,1010.85
2016-09-18T02:32:59.975Z,1010.84
2016-09-18T02:33:59.957Z,1010.86
2016-09-18T02:34:59.945Z,1010.86
2016-09-18T02:35:59.927Z,1010.83
2016-09-18T02:36:59.918Z,1010.92
2016-09-18T02:37:59.897Z,1010.85
2016-09-18T02:38:59.882Z,1010.85
2016-09-18T02:39:59.861Z,1010.85
2016-09-18T02:40:59.847Z,1010.82
2016-09-18T02:41:59.832Z,1010.79
2016-09-18T02:42:59.817Z,1010.81
2016-09-18T02:43:59.804Z,1010.8
2016-09-18T02:44:59.787Z,1010.8
2016-09-18T02:45:59.773Z,1010.79
2016-09-18T02:46:59.757Z,1010.73
2016-09-18T02:47:59.741Z,1010.78
2016-09-18T02:48:59.726Z,1010.72
2016-09-18T02:49:59.707Z,1010.73
2016-09-18T02:50:59.698Z,1010.76
2016-09-18T02:51:59.679Z,1010.74
2016-09-18T02:52:59.663Z,1010.76
2016-09-18T02:53:59.649Z,1010.76
2016-09-18T02:54:59.632Z,1010.76
2016-09-18T02:55:59.618Z,1010.74
2016-09-18T02:56:59.600Z,1010.74
2016-09-18T02:57:59.589Z,1010.77
2016-09-18T02:58:59.569Z,1010.77
2016-09-18T02:59:59.550Z,1010.76
2016-09-18T03:00:59.538Z,1010.71
2016-09-18T03:01:59.525Z,1010.73
2016-09-18T03:02:59.507Z,1010.68
2016-09-18T03:03:59.493Z,1010.65
2016-09-18T03:04:59.480Z,1010.69
2016-09-18T03:05:59.460Z,1010.65
2016-09-18T03:06:59.454Z,1010.65
2016-09-18T03:07:59.431Z,1010.7
2016-09-18T03:08:59.416Z,1010.67
2016-09-18T03:09:59.405Z,1010.71
2016-09-18T03:10:59.385Z,1010.64
2016-09-18T03:11:59.370Z,1010.71
2016-09-18T03:12:59.353Z,1010.66
2016-09-18T03:13:59.336Z,1010.65
2016-09-18T03:14:59.325Z,1010.67
2016-09-18T03:15:59.307Z,1010.62
2016-09-18T03:16:59.299Z,1010.63
2016-09-18T03:17:59.276Z,1010.64
2016-09-18T03:18:59.258Z,1010.64
2016-09-18T03:19:59.244Z,1010.59
2016-09-18T03:20:59.229Z,1010.63
2016-09-18T03:21:59.212Z,1010.63
2016-09-18T03:22:59.200Z,1010.59
2016-09-18T03:23:59.180Z,1010.59
2016-09-18T03:24:59.165Z,1010.62
2016-09-18T03:25:59.149Z,1010.58
2016-09-18T03:26:59.136Z,1010.56
2016-09-18T03:27:59.121Z,1010.54
2016-09-18T03:28:59.104Z,1010.57
2016-09-18T03:29:59.088Z,1010.55
2016-09-18T03:30:59.071Z,1010.53
2016-09-18T03:31:59.057Z,1010.51
2016-09-18T03:32:59.039Z,1010.52
2016-09-18T03:33:59.026Z,1010.5
2016-09-18T03:34:59.009Z,1010.5
2016-09-18T03:35:58.993Z,1010.49
2016-09-18T03:36:58.977Z,1010.51
2016-09-18T03:37:58.966Z,1010.5
2016-09-18T03:38:58.949Z,1010.5
2016-09-18T03:39:58.936Z,1010.48
2016-09-18T03:40:58.914Z,1010.53
2016-09-18T03:41:58.902Z,1010.51
2016-09-18T03:42:58.888Z,1010.5
2016-09-18T03:43:58.871Z,1010.5
2016-09-18T03:44:58.854Z,1010.55
2016-09-18T03:45:58.841Z,1010.48
2016-09-18T03:46:58.823Z,1010.45
2016-09-18T03:47:58.808Z,1010.49
2016-09-18T03:48:58.793Z,1010.48
2016-09-18T03:49:58.777Z,1010.49
2016-09-18T03:50:58.763Z,1010.51
2016-09-18T03:51:58.746Z,1010.51
2016-09-18T03:52:58.732Z,1010.53
2016-09-18T03:53:58.714Z,1010.57
2016-09-18T03:54:58.697Z,1010.53
2016-09-18T03:55:58.682Z,1010.58
2016-09-18T03:56:58.667Z,1010.58
2016-09-18T03:57:58.652Z,1010.59
2016-09-18T03:58:58.637Z,1010.55
2016-09-18T03:59:58.625Z,1010.58
2016-09-18T04:00:58.606Z,1010.59
2016-09-18T04:01:58.592Z,1010.58
2016-09-18T04:02:58.578Z,1010.6
2016-09-18T04:03:58.558Z,1010.59
2016-09-18T04:04:58.545Z,1010.57
2016-09-18T04:05:58.525Z,1010.54
2016-09-18T04:06:58.512Z,1010.51
2016-09-18T04:07:58.496Z,1010.53
2016-09-18T04:08:58.483Z,1010.57
2016-09-18T04:09:58.466Z,1010.54
2016-09-18T04:10:58.460Z,1010.56
2016-09-18T04:11:58.435Z,1010.56
2016-09-18T04:12:58.420Z,1010.5
2016-09-18T04:13:58.403Z,1010.51
2016-09-18T04:14:58.388Z,1010.49
2016-09-18T04:15:58.373Z,1010.49
2016-09-18T04:16:58.355Z,1010.48
2016-09-18T04:17:58.339Z,1010.5
2016-09-18T04:18:58.323Z,1010.5
2016-09-18T04:19:58.309Z,1010.52
2016-09-18T04:20:58.293Z,1010.47
2016-09-18T04:21:58.278Z,1010.54
2016-09-18T04:22:58.275Z,1010.53
2016-09-18T04:23:58.253Z,1010.52
2016-09-18T04:24:58.232Z,1010.49
2016-09-18T04:25:58.213Z,1010.47
2016-09-18T04:26:58.200Z,1010.46
2016-09-18T04:27:58.184Z,1010.48
2016-09-18T04:28:58.165Z,1010.47
2016-09-18T04:29:58.153Z,1010.45
2016-09-18T04:30:58.139Z,1010.5
2016-09-18T04:31:58.124Z,1010.47
2016-09-18T04:32:58.106Z,1010.45
2016-09-18T04:33:58.099Z,1010.45
2016-09-18T04:34:58.076Z,1010.5
2016-09-18T04:35:58.061Z,1010.48
2016-09-18T04:36:58.044Z,1010.5
2016-09-18T04:37:58.035Z,1010.45
2016-09-18T04:38:58.012Z,1010.47
2016-09-18T04:39:57.998Z,1010.47
2016-09-18T04:40:57.980Z,1010.45
2016-09-18T04:41:57.966Z,1010.47
2016-09-18T04:42:57.951Z,1010.51
2016-09-18T04:43:57.937Z,1010.45
2016-09-18T04:44:57.920Z,1010.46
2016-09-18T04:45:57.904Z,1010.43
2016-09-18T04:46:57.889Z,1010.44
2016-09-18T04:47:57.877Z,1010.5
2016-09-18T04:48:57.859Z,1010.51
2016-09-18T04:49:57.841Z,1010.53
2016-09-18T04:50:57.828Z,1010.56
2016-09-18T04:51:57.811Z,1010.53
2016-09-18T04:52:57.796Z,1010.57
2016-09-18T04:53:57.779Z,1010.48
2016-09-18T04:54:57.767Z,1010.55
2016-09-18T04:55:57.754Z,1010.55
2016-09-18T04:56:57.733Z,1010.58
2016-09-18T04:57:57.716Z,1010.55
2016-09-18T04:58:57.705Z,1010.57
2016-09-18T04:59:57.682Z,1010.58
2016-09-18T05:00:57.670Z,1010.62
2016-09-18T05:01:57.651Z,1010.6
2016-09-18T05:02:57.638Z,1010.62
2016-09-18T05:03:57.624Z,1010.59
2016-09-18T05:04:57.607Z,1010.59
2016-09-18T05:05:57.592Z,1010.58
2016-09-18T05:06:57.577Z,1010.6
2016-09-18T05:07:57.560Z,1010.57
2016-09-18T05:08:57.544Z,1010.58
2016-09-18T05:09:57.531Z,1010.58
2016-09-18T05:10:57.515Z,1010.57
2016-09-18T05:11:57.497Z,1010.64
2016-09-18T05:12:57.482Z,1010.63
2016-09-18T05:13:57.470Z,1010.62
2016-09-18T05:14:57.451Z,1010.65
2016-09-18T05:15:57.437Z,1010.64
2016-09-18T05:16:57.420Z,1010.59
2016-09-18T05:17:57.407Z,1010.64
2016-09-18T05:18:57.388Z,1010.64
2016-09-18T05:19:57.377Z,1010.63
2016-09-18T05:20:57.358Z,1010.63
2016-09-18T05:21:57.348Z,1010.63
2016-09-18T05:22:57.330Z,1010.66
2016-09-18T05:23:57.312Z,1010.66
2016-09-18T05:24:57.294Z,1010.72
2016-09-18T05:25:57.278Z,1010.7
2016-09-18T05:26:57.264Z,1010.71
2016-09-18T05:27:57.245Z,1010.72
2016-09-18T05:28:57.231Z,1010.74
2016-09-18T05:29:57.215Z,1010.72
2016-09-18T05:30:57.201Z,1010.71
2016-09-18T05:31:57.184Z,1010.73
2016-09-18T05:32:57.173Z,1010.72
2016-09-18T05:33:57.152Z,1010.68
2016-09-18T05:34:57.138Z,1010.69
2016-09-18T05:35:57.122Z,1010.67
2016-09-18T05:36:57.109Z,1010.71
2016-09-18T05:37:57.091Z,1010.71
2016-09-18T05:38:57.076Z,1010.73
2016-09-18T05:39:57.057Z,1010.71
2016-09-18T05:40:57.044Z,1010.71
2016-09-18T05:41:57.027Z,1010.68
2016-09-18T05:42:57.023Z,1010.7
2016-09-18T05:43:56.996Z,1010.73
2016-09-18T05:44:56.980Z,1010.79
2016-09-18T05:45:56.965Z,1010.82
2016-09-18T05:46:56.948Z,1010.79
2016-09-18T05:47:56.940Z,1010.83
2016-09-18T05:48:56.918Z,1010.8
2016-09-18T05:49:56.901Z,1010.79
2016-09-18T05:50:56.885Z,1010.79
2016-09-18T05:51:56.875Z,1010.8
2016-09-18T05:52:56.855Z,1010.79
2016-09-18T05:53:56.840Z,1010.83
2016-09-18T05:54:56.825Z,1010.79
2016-09-18T05:55:56.810Z,1010.78
2016-09-18T05:56:56.791Z,1010.76
2016-09-18T05:57:56.775Z,1010.81
2016-09-18T05:58:56.760Z,1010.83
2016-09-18T05:59:56.745Z,1010.84
2016-09-18T06:00:56.728Z,1010.87
2016-09-18T06:01:56.714Z,1010.81
2016-09-18T06:02:56.694Z,1010.88
2016-09-18T06:03:56.682Z,1010.84
2016-09-18T06:04:56.666Z,1010.84
2016-09-18T06:05:56.651Z,1010.82
2016-09-18T06:06:56.633Z,1010.78
2016-09-18T06:07:56.619Z,1010.72
2016-09-18T06:08:56.603Z,1010.72
2016-09-18T06:09:56.588Z,1010.74
2016-09-18T06:10:56.572Z,1010.73
2016-09-18T06:11:56.557Z,1010.77
2016-09-18T06:12:56.544Z,1010.75
2016-09-18T06:13:56.525Z,1010.82
2016-09-18T06:14:56.508Z,1010.82
2016-09-18T06:15:56.493Z,1010.82
2016-09-18T06:16:56.479Z,1010.78
2016-09-18T06:17:56.462Z,1010.82
2016-09-18T06:18:56.450Z,1010.81
2016-09-18T06:19:56.436Z,1010.79
2016-09-18T06:20:56.417Z,1010.79
2016-09-18T06:21:56.403Z,1010.78
2016-09-18T06:22:56.384Z,1010.78
2016-09-18T06:23:56.367Z,1010.79
2016-09-18T06:24:56.353Z,1010.79
2016-09-18T06:25:56.337Z,1010.75
2016-09-18T06:26:56.321Z,1010.77
2016-09-18T06:27:56.305Z,1010.75
2016-09-18T06:28:56.289Z,1010.73
2016-09-18T06:29:56.276Z,1010.78
2016-09-18T06:30:56.258Z,1010.78
2016-09-18T06:31:56.241Z,1010.83
2016-09-18T06:32:56.225Z,1010.82
2016-09-18T06:33:56.214Z,1010.83
2016-09-18T06:34:56.193Z,1010.78
2016-09-18T06:35:56.177Z,1010.83
2016-09-18T06:36:56.163Z,1010.88
2016-09-18T06:37:56.148Z,1010.86
2016-09-18T06:38:56.131Z,1010.87
2016-09-18T06:39:56.116Z,1010.88
2016-09-18T06:40:56.101Z,1010.95
2016-09-18T06:41:56.087Z,1010.89
2016-09-18T06:42:56.066Z,1010.87
2016-09-18T06:43:56.052Z,1010.89
2016-09-18T06:44:56.038Z,1010.93
2016-09-18T06:45:56.022Z,1010.9
2016-09-18T06:46:56.005Z,1010.95
2016-09-18T06:47:55.990Z,1010.89
2016-09-18T06:48:55.976Z,1010.89
2016-09-18T06:49:55.959Z,1010.88
2016-09-18T06:50:55.941Z,1010.89
2016-09-18T06:51:55.927Z,1010.91
2016-09-18T06:52:55.911Z,1010.91
2016-09-18T06:53:55.897Z,1010.95
2016-09-18T06:54:55.883Z,1010.96
2016-09-18T06:55:55.863Z,1011.01
2016-09-18T06:56:55.847Z,1011.02
2016-09-18T06:57:55.834Z,1010.96
2016-09-18T06:58:55.819Z,1011
2016-09-18T06:59:55.799Z,1011.03
2016-09-18T07:00:55.783Z,1010.98
2016-09-18T07:01:55.769Z,1011
2016-09-18T07:02:55.752Z,1010.97
2016-09-18T07:03:55.736Z,1010.98
2016-09-18T07:04:55.721Z,1011.01
2016-09-18T07:05:55.715Z,1010.98
2016-09-18T07:06:55.688Z,1010.98
2016-09-18T07:07:55.671Z,1010.92
2016-09-18T07:08:55.660Z,1010.97
2016-09-18T07:09:55.643Z,1010.94
2016-09-18T07:10:55.625Z,1010.92
2016-09-18T07:11:55.610Z,1010.95
2016-09-18T07:12:55.593Z,1010.91
2016-09-18T07:13:55.578Z,1010.92
2016-09-18T07:14:55.562Z,1010.92
2016-09-18T07:15:55.546Z,1010.92
2016-09-18T07:16:55.528Z,1010.86
2016-09-18T07:17:55.515Z,1010.88
2016-09-18T07:18:55.497Z,1010.83
2016-09-18T07:19:55.484Z,1010.84
2016-09-18T07:20:55.464Z,1010.89
2016-09-18T07:21:55.453Z,1010.88
2016-09-18T07:22:55.438Z,1010.87
2016-09-18T07:23:55.420Z,1010.9
2016-09-18T07:24:55.410Z,1010.91
2016-09-18T07:25:55.390Z,1010.94
2016-09-18T07:26:55.373Z,1010.99
2016-09-18T07:27:55.357Z,1010.91
2016-09-18T07:28:55.354Z,1010.95
2016-09-18T07:29:55.326Z,1010.88
2016-09-18T07:30:55.315Z,1010.91
2016-09-18T07:31:55.293Z,1010.93
2016-09-18T07:32:55.277Z,1010.9
2016-09-18T07:33:55.262Z,1010.92
2016-09-18T07:34:55.245Z,1010.93
2016-09-18T07:35:55.231Z,1010.99
2016-09-18T07:36:55.212Z,1010.91
2016-09-18T07:37:55.196Z,1010.97
2016-09-18T07:38:55.186Z,1010.99
2016-09-18T07:39:55.170Z,1010.98
2016-09-18T07:40:55.152Z,1010.97
2016-09-18T07:41:55.136Z,1010.98
2016-09-18T07:42:55.120Z,1010.99
2016-09-18T07:43:55.103Z,1010.99
2016-09-18T07:44:55.093Z,1010.94
2016-09-18T07:45:55.072Z,1010.87
2016-09-18T07:46:55.057Z,1010.86
2016-09-18T07:47:55.041Z,1010.89
2016-09-18T07:48:55.026Z,1010.87
2016-09-18T07:49:55.007Z,1010.87
2016-09-18T07:50:54.993Z,1010.85
2016-09-18T07:51:54.976Z,1010.85
2016-09-18T07:52:54.963Z,1010.87
2016-09-18T07:53:54.946Z,1010.89
2016-09-18T07:54:54.931Z,1010.92
2016-09-18T07:55:54.912Z,1010.93
2016-09-18T07:56:54.901Z,1010.91
2016-09-18T07:57:54.880Z,1010.9
2016-09-18T07:58:54.864Z,1010.93
2016-09-18T07:59:54.850Z,1010.93
2016-09-18T08:00:54.833Z,1010.95
2016-09-18T08:01:54.818Z,1010.95
2016-09-18T08:02:54.801Z,1010.94
2016-09-18T08:03:54.785Z,1010.94
2016-09-18T08:04:54.771Z,1010.94
2016-09-18T08:05:54.755Z,1010.96
2016-09-18T08:06:54.738Z,1010.96
2016-09-18T08:07:54.723Z,1010.95
2016-09-18T08:08:54.706Z,1010.96
2016-09-18T08:09:54.688Z,1010.96
2016-09-18T08:10:54.676Z,1010.93
2016-09-18T08:11:54.658Z,1010.94
2016-09-18T08:12:54.642Z,1010.97
2016-09-18T08:13:54.626Z,1010.96
2016-09-18T08:14:54.610Z,1011.01
2016-09-18T08:15:54.602Z,1010.99
2016-09-18T08:16:54.582Z,1010.98
2016-09-18T08:17:54.562Z,1011.04
2016-09-18T08:18:54.550Z,1010.97
2016-09-18T08:19:54.530Z,1010.99
2016-09-18T08:20:54.515Z,1011.01
2016-09-18T08:21:54.497Z,1011.03
2016-09-18T08:22:54.486Z,1011.01
2016-09-18T08:23:54.467Z,1010.99
2016-09-18T08:24:54.454Z,1010.98
2016-09-18T08:25:54.435Z,1010.97
2016-09-18T08:26:54.421Z,1010.96
2016-09-18T08:27:54.404Z,1011.01
2016-09-18T08:28:54.387Z,1010.96
2016-09-18T08:29:54.372Z,1011.01
2016-09-18T08:30:54.354Z,1011.01
2016-09-18T08:31:54.339Z,1011.03
2016-09-18T08:32:54.324Z,1011.01
2016-09-18T08:33:54.306Z,1010.94
2016-09-18T08:34:54.297Z,1010.97
2016-09-18T08:35:54.275Z,1010.99
2016-09-18T08:36:54.259Z,1011.03
2016-09-18T08:37:54.244Z,1010.98
2016-09-18T08:38:54.228Z,1011
2016-09-18T08:39:54.212Z,1011.03
2016-09-18T08:40:54.195Z,1011.03
2016-09-18T08:41:54.181Z,1011
2016-09-18T08:42:54.164Z,1011.06
2016-09-18T08:43:54.148Z,1011.03
2016-09-18T08:44:54.134Z,1011.1
2016-09-18T08:45:54.116Z,1011.1
2016-09-18T08:46:54.101Z,1011.09
2016-09-18T08:47:54.083Z,1011.09
2016-09-18T08:48:54.068Z,1011.08
2016-09-18T08:49:54.053Z,1011.1
2016-09-18T08:50:54.034Z,1011.11
2016-09-18T08:51:54.167Z,1011.12
2016-09-18T08:52:54.008Z,1011.1
2016-09-18T08:53:53.989Z,1011.1
2016-09-18T08:54:53.973Z,1011.07
2016-09-18T08:55:53.955Z,1011.13
2016-09-18T08:56:53.941Z,1011.08
2016-09-18T08:57:53.923Z,1011.09
2016-09-18T08:58:53.906Z,1011.08
2016-09-18T08:59:53.893Z,1011.09
2016-09-18T09:00:53.878Z,1011.11
2016-09-18T09:01:53.860Z,1011.16
2016-09-18T09:02:53.852Z,1011.17
2016-09-18T09:03:53.830Z,1011.19
2016-09-18T09:04:53.813Z,1011.11
2016-09-18T09:05:53.795Z,1011.16
2016-09-18T09:06:53.782Z,1011.12
2016-09-18T09:07:53.765Z,1011.1
2016-09-18T09:08:53.748Z,1011.09
2016-09-18T09:09:53.740Z,1011.1
2016-09-18T09:10:53.717Z,1011.11
2016-09-18T09:11:53.702Z,1011.09
2016-09-18T09:12:53.685Z,1011.11
2016-09-18T09:13:53.671Z,1011.11
2016-09-18T09:14:53.654Z,1011.07
2016-09-18T09:15:53.642Z,1011.1
2016-09-18T09:16:53.621Z,1011.07
2016-09-18T09:17:53.606Z,1011.06
2016-09-18T09:18:53.591Z,1011.11
2016-09-18T09:19:53.580Z,1011.1
2016-09-18T09:20:53.561Z,1011.09
2016-09-18T09:21:53.544Z,1011.09
2016-09-18T09:22:53.526Z,1011.08
2016-09-18T09:23:53.510Z,1011.12
2016-09-18T09:24:53.497Z,1011.12
2016-09-18T09:25:53.477Z,1011.09
2016-09-18T09:26:53.466Z,1011.08
2016-09-18T09:27:53.446Z,1011.08
2016-09-18T09:28:53.433Z,1011.04
2016-09-18T09:29:53.417Z,1011.09
2016-09-18T09:30:53.397Z,1011.08
2016-09-18T09:31:53.383Z,1011.12
2016-09-18T09:32:53.370Z,1011.14
2016-09-18T09:33:53.352Z,1011.08
2016-09-18T09:34:53.335Z,1011.08
2016-09-18T09:35:53.321Z,1011.12
2016-09-18T09:36:53.304Z,1011.07
2016-09-18T09:37:53.287Z,1011.1
2016-09-18T09:38:53.270Z,1011.06
2016-09-18T09:39:53.254Z,1011.07
2016-09-18T09:40:53.239Z,1011.01
2016-09-18T09:41:53.226Z,1011.05
2016-09-18T09:42:53.206Z,1011.05
2016-09-18T09:43:53.192Z,1011
2016-09-18T09:44:53.177Z,1011.03
2016-09-18T09:45:53.162Z,1010.99
2016-09-18T09:46:53.146Z,1011.01
2016-09-18T09:47:53.127Z,1011.01
2016-09-18T09:48:53.116Z,1011.04
2016-09-18T09:49:53.094Z,1011.02
2016-09-18T09:50:53.081Z,1011
2016-09-18T09:51:53.064Z,1010.99
2016-09-18T09:52:53.046Z,1011.01
2016-09-18T09:53:53.031Z,1011
2016-09-18T09:54:53.015Z,1011
2016-09-18T09:55:52.998Z,1010.98
2016-09-18T09:56:52.984Z,1011
2016-09-18T09:57:52.967Z,1011.03
2016-09-18T09:58:52.952Z,1011.04
2016-09-18T09:59:52.935Z,1011.01
2016-09-18T10:00:52.917Z,1010.97
2016-09-18T10:01:52.904Z,1010.99
2016-09-18T10:02:52.888Z,1010.96
2016-09-18T10:03:52.871Z,1010.96
2016-09-18T10:04:52.854Z,1010.9
2016-09-18T10:05:52.839Z,1010.9
2016-09-18T10:06:52.826Z,1010.88
2016-09-18T10:07:52.806Z,1010.91
2016-09-18T10:08:52.789Z,1010.92
2016-09-18T10:09:52.779Z,1010.92
2016-09-18T10:10:52.767Z,1010.89
2016-09-18T10:11:52.745Z,1010.93
2016-09-18T10:12:52.728Z,1010.9
2016-09-18T10:13:52.711Z,1010.88
2016-09-18T10:14:52.697Z,1010.93
2016-09-18T10:15:52.683Z,1010.91
2016-09-18T10:16:52.665Z,1010.8
2016-09-18T10:17:52.649Z,1010.85
2016-09-18T10:18:52.632Z,1010.85
2016-09-18T10:19:52.617Z,1010.82
2016-09-18T10:20:52.640Z,1010.83
2016-09-18T10:21:52.599Z,1010.85
2016-09-18T10:22:52.570Z,1010.81
2016-09-18T10:23:52.553Z,1010.81
2016-09-18T10:24:52.537Z,1010.82
2016-09-18T10:25:52.521Z,1010.81
2016-09-18T10:26:52.506Z,1010.8
2016-09-18T10:27:52.491Z,1010.8
2016-09-18T10:28:52.476Z,1010.8
2016-09-18T10:29:52.458Z,1010.81
2016-09-18T10:30:52.445Z,1010.8
2016-09-18T10:31:52.425Z,1010.82
2016-09-18T10:32:52.412Z,1010.78
2016-09-18T10:33:52.395Z,1010.75
2016-09-18T10:34:52.385Z,1010.77
2016-09-18T10:35:52.420Z,1010.72
2016-09-18T10:36:52.346Z,1010.73
2016-09-18T10:37:52.331Z,1010.79
2016-09-18T10:38:52.320Z,1010.83
2016-09-18T10:39:52.304Z,1010.78
2016-09-18T10:40:52.284Z,1010.8
2016-09-18T10:41:52.270Z,1010.79
2016-09-18T10:42:52.253Z,1010.78
2016-09-18T10:43:52.238Z,1010.76
2016-09-18T10:44:52.221Z,1010.75
2016-09-18T10:45:52.206Z,1010.75
2016-09-18T10:46:52.190Z,1010.79
2016-09-18T10:47:52.174Z,1010.8
2016-09-18T10:48:52.161Z,1010.73
2016-09-18T10:49:52.147Z,1010.76
2016-09-18T10:50:52.134Z,1010.78
2016-09-18T10:51:52.120Z,1010.79
2016-09-18T10:52:52.097Z,1010.84
2016-09-18T10:53:52.087Z,1010.77
2016-09-18T10:54:52.063Z,1010.79
2016-09-18T10:55:52.052Z,1010.88
2016-09-18T10:56:52.034Z,1010.8
2016-09-18T10:57:52.018Z,1010.79
2016-09-18T10:58:52.002Z,1010.82
2016-09-18T10:59:51.988Z,1010.8
2016-09-18T11:00:51.969Z,1010.78
2016-09-18T11:01:51.955Z,1010.77
2016-09-18T11:02:51.941Z,1010.78
2016-09-18T11:03:51.924Z,1010.81
2016-09-18T11:04:51.917Z,1010.8
2016-09-18T11:05:51.891Z,1010.81
2016-09-18T11:06:51.881Z,1010.84
2016-09-18T11:07:51.869Z,1010.83
2016-09-18T11:08:51.858Z,1010.8
2016-09-18T11:09:51.837Z,1010.8
2016-09-18T11:10:51.822Z,1010.78
2016-09-18T11:11:51.829Z,1010.86
2016-09-18T11:12:51.813Z,1010.85
2016-09-18T11:13:51.791Z,1010.83
2016-09-18T11:14:51.796Z,1010.82
2016-09-18T11:15:51.772Z,1010.79
2016-09-18T11:16:51.753Z,1010.79
2016-09-18T11:17:51.742Z,1010.78
2016-09-18T11:18:51.727Z,1010.79
2016-09-18T11:19:51.725Z,1010.78
2016-09-18T11:20:51.689Z,1010.72
2016-09-18T11:21:51.700Z,1010.8
2016-09-18T11:22:51.670Z,1010.79
2016-09-18T11:23:51.665Z,1010.79
2016-09-18T11:24:51.651Z,1010.77
2016-09-18T11:25:51.623Z,1010.76
2016-09-18T11:26:51.631Z,1010.74
2016-09-18T11:27:51.588Z,1010.75
2016-09-18T11:28:51.553Z,1010.68
2016-09-18T11:29:51.533Z,1010.77
2016-09-18T11:30:51.516Z,1010.76
2016-09-18T11:31:51.499Z,1010.74
2016-09-18T11:32:51.486Z,1010.7
2016-09-18T11:33:51.467Z,1010.7
2016-09-18T11:34:51.444Z,1010.69
2016-09-18T11:35:51.434Z,1010.66
2016-09-18T11:36:51.413Z,1010.69
2016-09-18T11:37:51.392Z,1010.71
2016-09-18T11:38:51.387Z,1010.75
2016-09-18T11:39:51.371Z,1010.73
2016-09-18T11:40:51.354Z,1010.73
2016-09-18T11:41:51.343Z,1010.7
2016-09-18T11:42:51.314Z,1010.7
2016-09-18T11:43:51.299Z,1010.69
2016-09-18T11:44:51.283Z,1010.64
2016-09-18T11:45:51.270Z,1010.69
2016-09-18T11:46:51.252Z,1010.7
2016-09-18T11:47:51.238Z,1010.7
2016-09-18T11:48:51.222Z,1010.63
2016-09-18T11:49:51.206Z,1010.66
2016-09-18T11:50:51.194Z,1010.62
2016-09-18T11:51:51.175Z,1010.62
2016-09-18T11:52:51.159Z,1010.68
2016-09-18T11:53:51.141Z,1010.76
2016-09-18T11:54:51.133Z,1010.62
2016-09-18T11:55:51.113Z,1010.56
2016-09-18T11:56:51.097Z,1010.6
2016-09-18T11:57:51.082Z,1010.6
2016-09-18T11:58:51.067Z,1010.59
2016-09-18T11:59:51.052Z,1010.61
2016-09-18T12:00:51.036Z,1010.65
2016-09-18T12:01:51.019Z,1010.57
2016-09-18T12:02:51.010Z,1010.54
2016-09-18T12:03:50.989Z,1010.56
2016-09-18T12:04:50.973Z,1010.57
2016-09-18T12:05:50.958Z,1010.57
2016-09-18T12:06:50.943Z,1010.57
2016-09-18T12:07:50.932Z,1010.53
2016-09-18T12:08:50.911Z,1010.54